createdAt,value
2022-09-01T00:00:28.171Z,17.05
2022-09-01T00:01:28.838Z,17.06
2022-09-01T00:02:28.904Z,17.04
2022-09-01T00:03:28.222Z,17.04
2022-09-01T00:04:28.877Z,17.03
2022-09-01T00:05:28.122Z,17.02
2022-09-01T00:06:28.159Z,17.01
2022-09-01T00:07:28.794Z,17.00
2022-09-01T00:08:28.759Z,16.98
2022-09-01T00:09:28.130Z,16.97
2022-09-01T00:10:28.751Z,16.97
2022-09-01T00:11:28.053Z,16.94
2022-09-01T00:12:28.711Z,16.94
2022-09-01T00:13:28.111Z,16.93
2022-09-01T00:14:30.662Z,16.92
2022-09-01T00:15:28.137Z,16.92
2022-09-01T00:16:29.937Z,16.92
2022-09-01T00:17:28.062Z,16.91
2022-09-01T00:18:28.643Z,16.91
2022-09-01T00:19:28.663Z,16.91
2022-09-01T00:20:28.623Z,16.91
2022-09-01T00:21:28.092Z,16.91
2022-09-01T00:22:27.979Z,16.90
2022-09-01T00:23:29.404Z,16.90
2022-09-01T00:24:27.998Z,16.90
2022-09-01T00:25:27.931Z,16.90
2022-09-01T00:26:28.572Z,16.91
2022-09-01T00:27:30.975Z,16.90
2022-09-01T00:28:30.312Z,16.90
2022-09-01T00:29:28.023Z,16.90
2022-09-01T00:30:28.832Z,16.90
2022-09-01T00:31:27.897Z,16.90
2022-09-01T00:32:28.500Z,16.91
2022-09-01T00:33:28.188Z,16.91
2022-09-01T00:34:27.867Z,16.91
2022-09-01T00:35:28.238Z,16.90
2022-09-01T00:36:28.456Z,16.89
2022-09-01T00:37:30.408Z,16.89
2022-09-01T00:38:27.838Z,16.88
2022-09-01T00:39:27.848Z,16.89
2022-09-01T00:40:28.793Z,16.88
2022-09-01T00:41:28.399Z,16.90
2022-09-01T00:42:28.737Z,16.89
2022-09-01T00:43:27.789Z,16.88
2022-09-01T00:44:29.769Z,16.88
2022-09-01T00:45:27.820Z,16.88
2022-09-01T00:46:30.246Z,16.87
2022-09-01T00:47:28.731Z,16.87
2022-09-01T00:48:28.001Z,16.87
2022-09-01T00:49:28.329Z,16.85
2022-09-01T00:50:27.672Z,16.85
2022-09-01T00:51:28.877Z,16.84
2022-09-01T00:52:28.612Z,16.84
2022-09-01T00:53:28.774Z,16.82
2022-09-01T00:54:27.613Z,16.83
2022-09-01T00:55:28.255Z,16.81
2022-09-01T00:56:28.241Z,16.81
2022-09-01T00:57:28.303Z,16.80
2022-09-01T00:58:28.222Z,16.80
2022-09-01T00:59:28.213Z,16.80
2022-09-01T01:00:28.199Z,16.80
2022-09-01T01:01:28.198Z,16.80
2022-09-01T01:02:30.018Z,16.79
2022-09-01T01:03:27.546Z,16.79
2022-09-01T01:04:28.148Z,16.79
2022-09-01T01:05:28.166Z,16.78
2022-09-01T01:06:31.796Z,16.77
2022-09-01T01:07:27.537Z,16.77
2022-09-01T01:08:28.116Z,16.75
2022-09-01T01:09:27.915Z,16.75
2022-09-01T01:10:27.466Z,16.74
2022-09-01T01:11:27.407Z,16.73
2022-09-01T01:12:28.232Z,16.72
2022-09-01T01:13:27.417Z,16.71
2022-09-01T01:14:27.417Z,16.71
2022-09-01T01:15:28.034Z,16.70
2022-09-01T01:16:28.280Z,16.71
2022-09-01T01:17:28.174Z,16.71
2022-09-01T01:18:28.168Z,16.70
2022-09-01T01:19:28.235Z,16.69
2022-09-01T01:20:27.325Z,16.69
2022-09-01T01:21:28.260Z,16.68
2022-09-01T01:22:27.313Z,16.68
2022-09-01T01:23:28.259Z,16.68
2022-09-01T01:24:28.113Z,16.69
2022-09-01T01:25:27.447Z,16.69
2022-09-01T01:26:29.252Z,16.70
2022-09-01T01:27:27.890Z,16.69
2022-09-01T01:28:29.713Z,16.69
2022-09-01T01:29:27.206Z,16.69
2022-09-01T01:30:27.233Z,16.68
2022-09-01T01:31:29.652Z,16.67
2022-09-01T01:32:27.860Z,16.68
2022-09-01T01:33:28.033Z,16.68
2022-09-01T01:34:27.169Z,16.68
2022-09-01T01:35:29.652Z,16.68
2022-09-01T01:36:28.094Z,16.68
2022-09-01T01:37:27.202Z,16.67
2022-09-01T01:38:27.781Z,16.67
2022-09-01T01:39:27.176Z,16.67
2022-09-01T01:40:29.133Z,16.66
2022-09-01T01:41:27.111Z,16.65
2022-09-01T01:42:27.738Z,16.65
2022-09-01T01:43:27.165Z,16.64
2022-09-01T01:44:27.118Z,16.63
2022-09-01T01:45:27.180Z,16.63
2022-09-01T01:46:27.084Z,16.64
2022-09-01T01:47:27.946Z,16.63
2022-09-01T01:48:27.028Z,16.63
2022-09-01T01:49:27.045Z,16.63
2022-09-01T01:50:27.655Z,16.63
2022-09-01T01:51:27.106Z,16.63
2022-09-01T01:52:27.672Z,16.63
2022-09-01T01:53:27.000Z,16.63
2022-09-01T01:54:27.062Z,16.62
2022-09-01T01:55:26.995Z,16.61
2022-09-01T01:56:29.366Z,16.60
2022-09-01T01:57:27.686Z,16.60
2022-09-01T01:58:26.979Z,16.60
2022-09-01T01:59:27.713Z,16.61
2022-09-01T02:00:30.507Z,16.60
2022-09-01T02:01:26.879Z,16.58
2022-09-01T02:02:26.887Z,16.57
2022-09-01T02:03:27.779Z,16.56
2022-09-01T02:04:26.821Z,16.55
2022-09-01T02:05:26.853Z,16.54
2022-09-01T02:06:27.479Z,16.53
2022-09-01T02:07:27.483Z,16.52
2022-09-01T02:08:29.830Z,16.51
2022-09-01T02:09:27.452Z,16.50
2022-09-01T02:10:27.619Z,16.49
2022-09-01T02:11:27.600Z,16.48
2022-09-01T02:12:27.422Z,16.47
2022-09-01T02:13:27.419Z,16.45
2022-09-01T02:14:28.432Z,16.45
2022-09-01T02:15:27.393Z,16.43
2022-09-01T02:16:27.412Z,16.42
2022-09-01T02:17:27.363Z,16.42
2022-09-01T02:18:27.356Z,16.41
2022-09-01T02:19:27.488Z,16.41
2022-09-01T02:20:26.654Z,16.40
2022-09-01T02:21:27.324Z,16.40
2022-09-01T02:22:27.321Z,16.39
2022-09-01T02:23:27.536Z,16.39
2022-09-01T02:24:26.635Z,16.38
2022-09-01T02:25:27.535Z,16.37
2022-09-01T02:26:26.697Z,16.37
2022-09-01T02:27:26.601Z,16.36
2022-09-01T02:28:27.250Z,16.34
2022-09-01T02:29:27.238Z,16.35
2022-09-01T02:30:27.288Z,16.34
2022-09-01T02:31:27.239Z,16.33
2022-09-01T02:32:26.610Z,16.32
2022-09-01T02:33:28.438Z,16.32
2022-09-01T02:34:27.460Z,16.31
2022-09-01T02:35:27.452Z,16.32
2022-09-01T02:36:26.497Z,16.30
2022-09-01T02:37:27.151Z,16.29
2022-09-01T02:38:27.129Z,16.28
2022-09-01T02:39:27.139Z,16.27
2022-09-01T02:40:27.220Z,16.27
2022-09-01T02:41:26.449Z,16.26
2022-09-01T02:42:26.459Z,16.25
2022-09-01T02:43:27.080Z,16.25
2022-09-01T02:44:27.501Z,16.24
2022-09-01T02:45:27.081Z,16.23
2022-09-01T02:46:27.050Z,16.22
2022-09-01T02:47:27.043Z,16.22
2022-09-01T02:48:27.032Z,16.21
2022-09-01T02:49:26.343Z,16.20
2022-09-01T02:50:26.441Z,16.20
2022-09-01T02:51:27.004Z,16.20
2022-09-01T02:52:26.293Z,16.18
2022-09-01T02:53:26.983Z,16.18
2022-09-01T02:54:26.963Z,16.18
2022-09-01T02:55:28.747Z,16.16
2022-09-01T02:56:26.383Z,16.15
2022-09-01T02:57:26.945Z,16.14
2022-09-01T02:58:26.926Z,16.14
2022-09-01T02:59:27.185Z,16.13
2022-09-01T03:00:27.175Z,16.13
2022-09-01T03:01:26.963Z,16.12
2022-09-01T03:02:26.956Z,16.11
2022-09-01T03:03:26.208Z,16.11
2022-09-01T03:04:26.267Z,16.10
2022-09-01T03:05:26.856Z,16.10
2022-09-01T03:06:26.836Z,16.09
2022-09-01T03:07:28.659Z,16.09
2022-09-01T03:08:26.806Z,16.09
2022-09-01T03:09:26.808Z,16.09
2022-09-01T03:10:26.158Z,16.08
2022-09-01T03:11:28.549Z,16.08
2022-09-01T03:12:26.781Z,16.07
2022-09-01T03:13:26.134Z,16.08
2022-09-01T03:14:27.058Z,16.07
2022-09-01T03:15:26.739Z,16.07
2022-09-01T03:16:26.757Z,16.06
2022-09-01T03:17:26.029Z,16.06
2022-09-01T03:18:26.737Z,16.05
2022-09-01T03:19:26.708Z,16.04
2022-09-01T03:20:26.707Z,16.06
2022-09-01T03:21:26.687Z,16.03
2022-09-01T03:22:28.441Z,16.02
2022-09-01T03:23:26.650Z,16.01
2022-09-01T03:24:26.644Z,16.00
2022-09-01T03:25:26.631Z,15.99
2022-09-01T03:26:26.023Z,15.98
2022-09-01T03:27:26.611Z,15.98
2022-09-01T03:28:25.976Z,15.96
2022-09-01T03:29:26.594Z,15.96
2022-09-01T03:30:25.910Z,15.96
2022-09-01T03:31:25.950Z,15.94
2022-09-01T03:32:25.914Z,15.93
2022-09-01T03:33:26.542Z,15.92
2022-09-01T03:34:26.535Z,15.91
2022-09-01T03:35:26.776Z,15.90
2022-09-01T03:36:25.845Z,15.89
2022-09-01T03:37:26.513Z,15.87
2022-09-01T03:38:26.474Z,15.86
2022-09-01T03:39:26.488Z,15.85
2022-09-01T03:40:25.858Z,15.83
2022-09-01T03:41:25.785Z,15.84
2022-09-01T03:42:28.272Z,15.81
2022-09-01T03:43:25.757Z,15.79
2022-09-01T03:44:25.785Z,15.78
2022-09-01T03:45:26.450Z,15.77
2022-09-01T03:46:25.737Z,15.75
2022-09-01T03:47:26.403Z,15.74
2022-09-01T03:48:26.381Z,15.72
2022-09-01T03:49:26.368Z,15.72
2022-09-01T03:50:26.358Z,15.70
2022-09-01T03:51:26.349Z,15.68
2022-09-01T03:52:26.338Z,15.66
2022-09-01T03:53:26.329Z,15.65
2022-09-01T03:54:26.318Z,15.64
2022-09-01T03:55:25.757Z,15.64
2022-09-01T03:56:26.289Z,15.64
2022-09-01T03:57:25.600Z,15.64
2022-09-01T03:58:29.077Z,15.64
2022-09-01T03:59:28.030Z,15.63
2022-09-01T04:00:26.488Z,15.62
2022-09-01T04:01:26.326Z,15.61
2022-09-01T04:02:25.612Z,15.60
2022-09-01T04:03:28.753Z,15.59
2022-09-01T04:04:25.532Z,15.59
2022-09-01T04:05:25.550Z,15.57
2022-09-01T04:06:27.446Z,15.57
2022-09-01T04:07:25.509Z,15.56
2022-09-01T04:08:26.234Z,15.56
2022-09-01T04:09:25.472Z,15.55
2022-09-01T04:10:25.494Z,15.54
2022-09-01T04:11:26.133Z,15.54
2022-09-01T04:12:25.446Z,15.53
2022-09-01T04:13:26.104Z,15.51
2022-09-01T04:14:26.075Z,15.50
2022-09-01T04:15:25.418Z,15.50
2022-09-01T04:16:25.456Z,15.49
2022-09-01T04:17:30.320Z,15.49
2022-09-01T04:18:26.064Z,15.48
2022-09-01T04:19:25.413Z,15.47
2022-09-01T04:20:26.043Z,15.47
2022-09-01T04:21:25.354Z,15.47
2022-09-01T04:22:26.016Z,15.47
2022-09-01T04:23:25.994Z,15.46
2022-09-01T04:24:25.983Z,15.46
2022-09-01T04:25:25.354Z,15.45
2022-09-01T04:26:25.307Z,15.45
2022-09-01T04:27:25.308Z,15.44
2022-09-01T04:28:25.290Z,15.43
2022-09-01T04:29:27.843Z,15.42
2022-09-01T04:30:25.926Z,15.42
2022-09-01T04:31:25.287Z,15.41
2022-09-01T04:32:27.159Z,15.40
2022-09-01T04:33:25.890Z,15.41
2022-09-01T04:34:25.878Z,15.40
2022-09-01T04:35:25.180Z,15.40
2022-09-01T04:36:25.855Z,15.39
2022-09-01T04:37:25.182Z,15.39
2022-09-01T04:38:25.182Z,15.39
2022-09-01T04:39:25.162Z,15.40
2022-09-01T04:40:25.869Z,15.39
2022-09-01T04:41:25.113Z,15.39
2022-09-01T04:42:25.784Z,15.37
2022-09-01T04:43:25.782Z,15.38
2022-09-01T04:44:26.573Z,15.37
2022-09-01T04:45:25.157Z,15.37
2022-09-01T04:46:25.102Z,15.37
2022-09-01T04:47:25.734Z,15.38
2022-09-01T04:48:25.772Z,15.38
2022-09-01T04:49:25.702Z,15.38
2022-09-01T04:50:25.055Z,15.40
2022-09-01T04:51:25.684Z,15.41
2022-09-01T04:52:25.097Z,15.41
2022-09-01T04:53:25.699Z,15.43
2022-09-01T04:54:24.987Z,15.42
2022-09-01T04:55:25.642Z,15.44
2022-09-01T04:56:25.623Z,15.44
2022-09-01T04:57:25.624Z,15.45
2022-09-01T04:58:25.133Z,15.44
2022-09-01T04:59:24.907Z,15.45
2022-09-01T05:00:24.915Z,15.45
2022-09-01T05:01:25.717Z,15.46
2022-09-01T05:02:24.992Z,15.46
2022-09-01T05:03:25.562Z,15.47
2022-09-01T05:04:25.557Z,15.48
2022-09-01T05:05:25.549Z,15.49
2022-09-01T05:06:25.516Z,15.50
2022-09-01T05:07:27.257Z,15.50
2022-09-01T05:08:27.288Z,15.51
2022-09-01T05:09:26.287Z,15.53
2022-09-01T05:10:25.487Z,15.54
2022-09-01T05:11:24.798Z,15.56
2022-09-01T05:12:25.459Z,15.58
2022-09-01T05:13:25.448Z,15.58
2022-09-01T05:14:25.417Z,15.62
2022-09-01T05:15:25.429Z,15.63
2022-09-01T05:16:25.610Z,15.63
2022-09-01T05:17:24.703Z,15.65
2022-09-01T05:18:25.391Z,15.66
2022-09-01T05:19:24.690Z,15.68
2022-09-01T05:20:24.785Z,15.69
2022-09-01T05:21:25.355Z,15.70
2022-09-01T05:22:25.341Z,15.72
2022-09-01T05:23:25.413Z,15.74
2022-09-01T05:24:24.652Z,15.75
2022-09-01T05:25:27.117Z,15.78
2022-09-01T05:26:24.702Z,15.81
2022-09-01T05:27:24.690Z,15.84
2022-09-01T05:28:25.356Z,15.87
2022-09-01T05:29:24.622Z,15.92
2022-09-01T05:30:25.272Z,15.95
2022-09-01T05:31:25.299Z,16.01
2022-09-01T05:32:25.243Z,16.06
2022-09-01T05:33:25.464Z,16.13
2022-09-01T05:34:25.212Z,16.21
2022-09-01T05:35:32.477Z,16.29
2022-09-01T05:36:25.514Z,16.41
2022-09-01T05:37:24.484Z,16.56
2022-09-01T05:38:25.154Z,16.73
2022-09-01T05:39:24.466Z,17.04
2022-09-01T05:40:25.187Z,17.43
2022-09-01T05:41:24.526Z,17.90
2022-09-01T05:42:24.497Z,18.45
2022-09-01T05:43:24.930Z,19.01
2022-09-01T05:44:25.107Z,19.58
2022-09-01T05:45:24.465Z,20.18
2022-09-01T05:46:25.097Z,20.75
2022-09-01T05:47:25.076Z,21.30
2022-09-01T05:48:25.060Z,21.84
2022-09-01T05:49:25.059Z,22.36
2022-09-01T05:50:26.333Z,22.87
2022-09-01T05:51:43.305Z,23.39
2022-09-01T05:52:25.343Z,23.84
2022-09-01T05:53:25.009Z,24.28
2022-09-01T05:54:24.379Z,24.69
2022-09-01T05:55:24.979Z,25.05
2022-09-01T05:56:24.970Z,25.39
2022-09-01T05:57:34.573Z,25.69
2022-09-01T05:58:26.475Z,25.96
2022-09-01T05:59:25.664Z,26.17
2022-09-01T06:00:24.270Z,26.35
2022-09-01T06:01:24.914Z,26.53
2022-09-01T06:02:25.066Z,26.60
2022-09-01T06:03:25.320Z,26.44
2022-09-01T06:04:24.211Z,26.19
2022-09-01T06:05:24.871Z,26.10
2022-09-01T06:06:24.191Z,26.32
2022-09-01T06:07:25.561Z,26.56
2022-09-01T06:08:24.211Z,26.82
2022-09-01T06:09:24.841Z,27.09
2022-09-01T06:10:24.875Z,27.31
2022-09-01T06:11:24.809Z,27.53
2022-09-01T06:12:24.885Z,27.75
2022-09-01T06:13:27.342Z,27.99
2022-09-01T06:14:24.772Z,28.21
2022-09-01T06:15:24.147Z,28.40
2022-09-01T06:16:25.138Z,28.56
2022-09-01T06:17:25.448Z,28.75
2022-09-01T06:18:24.995Z,28.97
2022-09-01T06:19:25.287Z,29.19
2022-09-01T06:20:24.798Z,29.36
2022-09-01T06:21:24.697Z,29.47
2022-09-01T06:22:24.689Z,29.59
2022-09-01T06:23:25.939Z,29.69
2022-09-01T06:24:23.977Z,29.85
2022-09-01T06:25:24.658Z,30.01
2022-09-01T06:26:24.657Z,30.17
2022-09-01T06:27:23.939Z,30.34
2022-09-01T06:28:23.951Z,30.48
2022-09-01T06:29:23.932Z,30.60
2022-09-01T06:30:24.729Z,30.72
2022-09-01T06:31:23.931Z,30.80
2022-09-01T06:32:23.968Z,30.87
2022-09-01T06:33:24.580Z,30.93
2022-09-01T06:34:23.923Z,31.04
2022-09-01T06:35:24.576Z,31.16
2022-09-01T06:36:23.899Z,31.30
2022-09-01T06:37:23.874Z,31.46
2022-09-01T06:38:24.015Z,31.60
2022-09-01T06:39:23.883Z,31.83
2022-09-01T06:40:24.547Z,32.04
2022-09-01T06:41:23.805Z,32.21
2022-09-01T06:42:24.474Z,32.28
2022-09-01T06:43:24.456Z,32.32
2022-09-01T06:44:23.815Z,32.32
2022-09-01T06:45:24.448Z,32.33
2022-09-01T06:46:24.483Z,32.33
2022-09-01T06:47:24.425Z,32.35
2022-09-01T06:48:26.158Z,32.38
2022-09-01T06:49:23.730Z,32.41
2022-09-01T06:51:24.717Z,32.45
2022-09-01T06:52:23.713Z,32.53
2022-09-01T06:54:24.693Z,32.70
2022-09-01T06:55:23.668Z,32.81
2022-09-01T06:56:24.599Z,32.91
2022-09-01T06:58:26.563Z,33.13
2022-09-01T06:59:23.646Z,33.21
2022-09-01T07:00:25.526Z,33.34
2022-09-01T07:01:25.621Z,33.54
2022-09-01T07:02:27.183Z,33.71
2022-09-01T07:03:23.552Z,33.79
2022-09-01T07:04:25.289Z,33.81
2022-09-01T07:08:25.098Z,34.25
2022-09-01T07:09:38.641Z,34.41
2022-09-01T07:10:24.614Z,34.56
2022-09-01T07:12:26.675Z,34.81
2022-09-01T07:13:24.135Z,34.90
2022-09-01T07:14:24.126Z,35.03
2022-09-01T07:17:26.368Z,35.66
2022-09-01T07:19:48.317Z,36.14
2022-09-01T07:20:26.040Z,36.28
2022-09-01T07:21:42.420Z,36.38
2022-09-01T07:23:24.430Z,36.52
2022-09-01T07:24:26.616Z,36.62
2022-09-01T07:25:48.265Z,36.63
2022-09-01T07:26:25.805Z,36.63
2022-09-01T07:27:23.331Z,36.64
2022-09-01T07:28:25.463Z,36.68
2022-09-01T07:29:23.332Z,36.71
2022-09-01T07:30:23.963Z,36.66
2022-09-01T07:34:39.981Z,36.60
2022-09-01T07:35:25.016Z,36.71
2022-09-01T07:39:57.233Z,32.61
2022-09-01T07:42:56.298Z,35.95
2022-09-01T07:43:25.004Z,36.62
2022-09-01T07:44:23.121Z,36.58
2022-09-01T07:45:27.545Z,36.60
2022-09-01T07:46:39.256Z,36.67
2022-09-01T07:49:49.173Z,36.98
2022-09-01T07:50:40.455Z,37.09
2022-09-01T07:51:40.283Z,37.15
2022-09-01T07:52:25.527Z,37.19
2022-09-01T07:53:24.952Z,37.20
2022-09-01T07:54:23.039Z,37.25
2022-09-01T07:55:23.113Z,37.28
2022-09-01T07:56:22.993Z,37.32
2022-09-01T07:57:23.679Z,37.34
2022-09-01T07:58:23.653Z,37.35
2022-09-01T07:59:22.961Z,37.37
2022-09-01T08:00:23.943Z,37.44
2022-09-01T08:01:24.662Z,37.58
2022-09-01T08:02:23.691Z,37.70
2022-09-01T08:03:23.892Z,37.83
2022-09-01T08:04:22.990Z,37.94
2022-09-01T08:05:22.906Z,38.02
2022-09-01T08:06:22.888Z,38.11
2022-09-01T08:07:23.007Z,38.19
2022-09-01T08:08:29.408Z,38.32
2022-09-01T08:09:32.794Z,38.44
2022-09-01T08:10:23.869Z,38.54
2022-09-01T08:11:40.002Z,38.62
2022-09-01T08:12:28.926Z,38.65
2022-09-01T08:13:22.811Z,38.68
2022-09-01T08:14:23.491Z,38.76
2022-09-01T08:15:41.111Z,38.94
2022-09-01T08:16:25.708Z,39.05
2022-09-01T08:18:23.846Z,39.14
2022-09-01T08:19:22.751Z,39.17
2022-09-01T08:20:23.421Z,39.24
2022-09-01T08:21:23.448Z,39.27
2022-09-01T08:22:23.407Z,39.27
2022-09-01T08:23:23.303Z,39.26
2022-09-01T08:24:23.366Z,39.29
2022-09-01T08:25:24.999Z,39.36
2022-09-01T08:26:22.685Z,39.41
2022-09-01T08:27:23.410Z,39.39
2022-09-01T08:28:26.957Z,39.35
2022-09-01T08:29:23.316Z,39.27
2022-09-01T08:30:23.307Z,39.17
2022-09-01T08:31:23.604Z,39.08
2022-09-01T08:32:23.356Z,39.00
2022-09-01T08:33:23.286Z,38.92
2022-09-01T08:34:23.276Z,38.85
2022-09-01T08:35:23.256Z,38.77
2022-09-01T08:36:25.013Z,38.70
2022-09-01T08:37:22.588Z,38.61
2022-09-01T08:38:22.821Z,38.48
2022-09-01T08:39:22.530Z,38.35
2022-09-01T08:40:22.607Z,38.23
2022-09-01T08:41:24.922Z,38.08
2022-09-01T08:42:23.269Z,37.94
2022-09-01T08:43:22.593Z,37.82
2022-09-01T08:44:22.460Z,37.73
2022-09-01T08:45:23.160Z,37.68
2022-09-01T08:46:23.239Z,37.64
2022-09-01T08:47:43.604Z,37.56
2022-09-01T08:49:27.096Z,37.43
2022-09-01T08:50:24.374Z,37.39
2022-09-01T08:51:23.084Z,37.28
2022-09-01T08:52:23.131Z,37.15
2022-09-01T08:53:23.113Z,36.97
2022-09-01T08:54:29.397Z,36.79
2022-09-01T08:55:24.292Z,36.64
2022-09-01T08:56:23.034Z,36.51
2022-09-01T08:57:23.026Z,36.40
2022-09-01T08:58:22.520Z,36.28
2022-09-01T08:59:22.666Z,36.13
2022-09-01T09:00:22.629Z,36.00
2022-09-01T09:01:22.357Z,35.85
2022-09-01T09:02:23.108Z,35.67
2022-09-01T09:03:22.295Z,35.52
2022-09-01T09:04:22.278Z,35.35
2022-09-01T09:05:22.249Z,35.21
2022-09-01T09:06:22.259Z,35.06
2022-09-01T09:07:22.919Z,34.93
2022-09-01T09:08:22.902Z,34.80
2022-09-01T09:09:32.454Z,34.67
2022-09-01T09:10:23.221Z,34.55
2022-09-01T09:11:22.661Z,34.47
2022-09-01T09:12:22.849Z,34.44
2022-09-01T09:13:22.913Z,34.40
2022-09-01T09:14:22.901Z,34.35
2022-09-01T09:15:22.874Z,34.28
2022-09-01T09:16:22.264Z,34.27
2022-09-01T09:17:22.821Z,34.25
2022-09-01T09:18:39.649Z,34.15
2022-09-01T09:19:24.561Z,34.04
2022-09-01T09:20:22.134Z,33.98
2022-09-01T09:21:22.766Z,33.87
2022-09-01T09:22:22.155Z,33.74
2022-09-01T09:23:22.165Z,33.62
2022-09-01T09:24:22.891Z,33.51
2022-09-01T09:25:22.729Z,33.42
2022-09-01T09:26:22.453Z,33.37
2022-09-01T09:27:24.002Z,33.35
2022-09-01T09:28:22.018Z,33.40
2022-09-01T09:29:23.295Z,33.43
2022-09-01T09:30:22.026Z,33.45
2022-09-01T09:31:22.076Z,33.41
2022-09-01T09:32:24.002Z,33.33
2022-09-01T09:33:47.770Z,33.28
2022-09-01T09:34:23.634Z,33.31
2022-09-01T09:35:24.360Z,33.32
2022-09-01T09:36:25.302Z,33.21
2022-09-01T09:37:23.845Z,32.54
2022-09-01T09:38:24.344Z,32.22
2022-09-01T09:39:22.583Z,32.26
2022-09-01T09:40:21.928Z,32.36
2022-09-01T09:41:29.746Z,32.50
2022-09-01T09:42:27.670Z,32.67
2022-09-01T09:43:22.872Z,32.87
2022-09-01T09:44:23.064Z,33.05
2022-09-01T09:45:21.832Z,33.19
2022-09-01T09:46:25.298Z,33.15
2022-09-01T09:47:42.357Z,32.89
2022-09-01T09:48:22.877Z,32.43
2022-09-01T09:49:35.967Z,31.88
2022-09-01T09:50:24.679Z,31.44
2022-09-01T09:51:24.216Z,31.12
2022-09-01T09:52:21.797Z,30.56
2022-09-01T09:53:21.884Z,30.23
2022-09-01T09:54:21.770Z,30.09
2022-09-01T09:55:22.490Z,30.10
2022-09-01T09:56:22.404Z,30.44
2022-09-01T09:57:22.400Z,30.61
2022-09-01T09:58:22.379Z,31.03
2022-09-01T09:59:34.155Z,31.40
2022-09-01T10:00:25.822Z,31.69
2022-09-01T10:01:24.327Z,32.01
2022-09-01T10:02:22.321Z,32.32
2022-09-01T10:03:22.864Z,32.66
2022-09-01T10:04:21.717Z,33.01
2022-09-01T10:05:23.082Z,33.28
2022-09-01T10:06:22.275Z,33.50
2022-09-01T10:07:24.502Z,33.68
2022-09-01T10:08:22.523Z,33.84
2022-09-01T10:09:23.994Z,34.04
2022-09-01T10:10:22.253Z,34.27
2022-09-01T10:11:22.232Z,34.48
2022-09-01T10:12:22.215Z,34.70
2022-09-01T10:13:22.281Z,34.89
2022-09-01T10:14:35.350Z,35.12
2022-09-01T10:15:23.185Z,35.38
2022-09-01T10:16:22.315Z,35.63
2022-09-01T10:17:22.622Z,35.92
2022-09-01T10:18:28.336Z,35.57
2022-09-01T10:19:23.936Z,35.70
2022-09-01T10:20:21.459Z,35.91
2022-09-01T10:21:21.490Z,36.20
2022-09-01T10:22:22.161Z,36.47
2022-09-01T10:23:22.125Z,36.65
2022-09-01T10:24:26.958Z,36.81
2022-09-01T10:25:23.108Z,36.98
2022-09-01T10:26:22.059Z,37.15
2022-09-01T10:27:21.414Z,37.28
2022-09-01T10:28:22.358Z,37.39
2022-09-01T10:29:21.380Z,37.53
2022-09-01T10:30:21.381Z,36.89
2022-09-01T10:31:21.396Z,36.45
2022-09-01T10:32:35.173Z,34.97
2022-09-01T10:33:22.571Z,33.97
2022-09-01T10:34:21.302Z,34.31
2022-09-01T10:35:21.342Z,34.18
2022-09-01T10:36:24.427Z,34.00
2022-09-01T10:37:22.835Z,33.48
2022-09-01T10:38:21.979Z,32.78
2022-09-01T10:39:22.156Z,32.13
2022-09-01T10:40:30.337Z,31.57
2022-09-01T10:41:22.284Z,31.18
2022-09-01T10:42:21.904Z,30.94
2022-09-01T10:43:21.218Z,30.74
2022-09-01T10:44:21.867Z,30.55
2022-09-01T10:45:21.870Z,30.33
2022-09-01T10:46:38.975Z,30.14
2022-09-01T10:47:23.169Z,29.88
2022-09-01T10:48:48.820Z,29.73
2022-09-01T10:49:25.280Z,29.62
2022-09-01T10:50:22.126Z,29.51
2022-09-01T10:51:22.571Z,29.40
2022-09-01T10:52:28.430Z,29.31
2022-09-01T10:53:26.907Z,29.23
2022-09-01T10:54:21.592Z,29.16
2022-09-01T10:55:25.187Z,29.07
2022-09-01T10:56:28.416Z,28.99
2022-09-01T10:57:27.736Z,28.93
2022-09-01T10:59:32.807Z,28.74
2022-09-01T11:00:40.048Z,28.65
2022-09-01T11:01:47.302Z,28.60
2022-09-01T11:02:24.873Z,28.58
2022-09-01T11:03:30.490Z,28.55
2022-09-01T11:04:22.759Z,28.52
2022-09-01T11:05:21.729Z,28.46
2022-09-01T11:06:21.724Z,28.36
2022-09-01T11:07:33.470Z,28.29
2022-09-01T11:08:23.422Z,28.22
2022-09-01T11:09:21.222Z,28.09
2022-09-01T11:10:36.253Z,28.03
2022-09-01T11:11:22.119Z,27.98
2022-09-01T11:12:29.238Z,27.94
2022-09-01T11:13:22.055Z,27.81
2022-09-01T11:14:21.867Z,27.73
2022-09-01T11:15:21.561Z,27.63
2022-09-01T11:16:45.891Z,27.59
2022-09-01T11:17:22.230Z,27.57
2022-09-01T11:18:21.086Z,27.55
2022-09-01T11:19:20.938Z,27.54
2022-09-01T11:20:20.821Z,27.51
2022-09-01T11:21:20.829Z,27.46
2022-09-01T11:22:21.459Z,27.43
2022-09-01T11:23:21.453Z,27.43
2022-09-01T11:24:20.840Z,27.45
2022-09-01T11:25:21.419Z,27.46
2022-09-01T11:26:20.742Z,27.49
2022-09-01T11:27:21.412Z,27.52
2022-09-01T11:28:21.807Z,27.51
2022-09-01T11:29:20.849Z,27.46
2022-09-01T11:30:21.374Z,27.42
2022-09-01T11:31:20.719Z,27.44
2022-09-01T11:32:21.421Z,27.47
2022-09-01T11:33:21.353Z,27.53
2022-09-01T11:34:20.866Z,27.57
2022-09-01T11:35:20.694Z,27.61
2022-09-01T11:36:22.207Z,27.64
2022-09-01T11:37:21.296Z,27.65
2022-09-01T11:38:21.624Z,27.65
2022-09-01T11:39:21.454Z,27.65
2022-09-01T11:40:20.626Z,27.69
2022-09-01T11:41:20.615Z,27.70
2022-09-01T11:42:21.252Z,27.69
2022-09-01T11:43:20.752Z,27.69
2022-09-01T11:44:20.628Z,27.64
2022-09-01T11:45:21.216Z,27.62
2022-09-01T11:46:21.217Z,27.58
2022-09-01T11:47:21.767Z,27.53
2022-09-01T11:48:20.517Z,27.49
2022-09-01T11:49:20.744Z,27.43
2022-09-01T11:50:20.485Z,27.49
2022-09-01T11:51:21.174Z,27.54
2022-09-01T11:52:20.480Z,27.53
2022-09-01T11:53:20.735Z,27.56
2022-09-01T11:54:20.442Z,27.61
2022-09-01T11:55:21.191Z,27.62
2022-09-01T11:56:20.424Z,27.61
2022-09-01T11:57:20.411Z,27.63
2022-09-01T11:58:21.331Z,27.61
2022-09-01T11:59:20.493Z,27.57
2022-09-01T12:00:22.323Z,27.56
2022-09-01T12:01:20.632Z,27.58
2022-09-01T12:02:20.485Z,27.59
2022-09-01T12:03:21.451Z,27.58
2022-09-01T12:04:20.323Z,27.52
2022-09-01T12:05:20.364Z,27.46
2022-09-01T12:06:20.985Z,27.43
2022-09-01T12:07:20.308Z,27.40
2022-09-01T12:08:22.972Z,27.40
2022-09-01T12:09:20.305Z,27.41
2022-09-01T12:10:20.944Z,27.43
2022-09-01T12:11:20.380Z,27.39
2022-09-01T12:12:20.227Z,27.36
2022-09-01T12:13:20.350Z,27.32
2022-09-01T12:14:20.887Z,27.28
2022-09-01T12:15:20.257Z,27.24
2022-09-01T12:16:20.875Z,27.15
2022-09-01T12:17:20.318Z,27.04
2022-09-01T12:18:20.839Z,26.97
2022-09-01T12:19:20.837Z,26.92
2022-09-01T12:20:24.377Z,26.88
2022-09-01T12:21:22.072Z,26.93
2022-09-01T12:22:20.920Z,27.03
2022-09-01T12:23:20.892Z,27.12
2022-09-01T12:24:21.809Z,27.19
2022-09-01T12:25:20.250Z,27.24
2022-09-01T12:26:20.413Z,27.29
2022-09-01T12:27:20.762Z,27.33
2022-09-01T12:28:20.742Z,27.36
2022-09-01T12:29:20.415Z,27.38
2022-09-01T12:30:20.712Z,27.38
2022-09-01T12:31:20.476Z,27.36
2022-09-01T12:32:20.096Z,27.35
2022-09-01T12:33:24.207Z,27.31
2022-09-01T12:34:20.004Z,27.22
2022-09-01T12:35:20.655Z,27.15
2022-09-01T12:36:20.655Z,27.06
2022-09-01T12:37:20.065Z,26.97
2022-09-01T12:38:20.215Z,26.91
2022-09-01T12:39:20.636Z,26.85
2022-09-01T12:40:20.656Z,26.78
2022-09-01T12:41:23.733Z,26.73
2022-09-01T12:42:19.900Z,26.74
2022-09-01T12:43:20.002Z,26.83
2022-09-01T12:44:19.909Z,26.94
2022-09-01T12:45:19.888Z,27.01
2022-09-01T12:46:19.909Z,27.05
2022-09-01T12:47:20.554Z,27.13
2022-09-01T12:48:19.852Z,27.17
2022-09-01T12:49:20.538Z,27.19
2022-09-01T12:50:19.882Z,27.22
2022-09-01T12:51:23.831Z,27.25
2022-09-01T12:52:20.861Z,27.27
2022-09-01T12:53:22.382Z,27.20
2022-09-01T12:54:21.312Z,27.16
2022-09-01T12:56:20.773Z,26.91
2022-09-01T12:57:20.445Z,26.82
2022-09-01T12:58:20.426Z,26.74
2022-09-01T12:59:24.745Z,26.65
2022-09-01T13:00:20.985Z,26.58
2022-09-01T13:01:20.479Z,26.53
2022-09-01T13:02:20.451Z,26.45
2022-09-01T13:03:20.493Z,26.39
2022-09-01T13:04:20.334Z,26.34
2022-09-01T13:05:20.337Z,26.31
2022-09-01T13:06:19.685Z,26.28
2022-09-01T13:07:19.626Z,26.26
2022-09-01T13:08:19.626Z,26.25
2022-09-01T13:09:19.689Z,26.27
2022-09-01T13:10:20.287Z,26.30
2022-09-01T13:11:20.167Z,26.39
2022-09-01T13:12:19.586Z,26.54
2022-09-01T13:13:19.715Z,26.62
2022-09-01T13:14:20.261Z,26.70
2022-09-01T13:15:20.236Z,26.75
2022-09-01T13:16:20.258Z,26.81
2022-09-01T13:17:20.219Z,26.91